Time;durP1;ratioP1;P1;durP2;ratioP2;P2;SDS_P1;SDS_P2;PMS_P1;PMS_P2;Temp;Humidity;BMP_temperature;BMP_pressure;BME280_temperature;BME280_humidity;BME280_pressure;Samples;Min_cycle;Max_cycle;Signal;HPM_P1;HPM_P2
2021/06/25 00:00:24;;;;;;;2.70;2.60;;;20.00;99.90;;;;;;10512328;28;20203;-83
2021/06/25 00:05:28;;;;;;;4.50;2.60;;;19.90;99.90;;;;;;10501057;28;20312;-83
2021/06/25 00:10:31;;;;;;;2.90;2.70;;;19.90;99.90;;;;;;10520573;28;20204;-83
2021/06/25 00:15:33;;;;;;;2.93;2.77;;;19.70;99.90;;;;;;10516564;28;20286;-83
2021/06/25 00:20:36;;;;;;;2.50;2.40;;;19.60;99.90;;;;;;10527719;28;20203;-83
2021/06/25 00:25:39;;;;;;;2.80;2.70;;;19.50;99.90;;;;;;10534414;28;20223;-83
2021/06/25 00:30:42;;;;;;;2.50;2.40;;;19.40;99.90;;;;;;10540554;28;20210;-83
2021/06/25 00:35:46;;;;;;;3.00;2.63;;;19.40;99.90;;;;;;10515553;28;20265;-83
2021/06/25 00:40:48;;;;;;;2.17;2.07;;;19.40;99.90;;;;;;10542264;28;20224;-83
2021/06/25 00:45:51;;;;;;;2.33;2.23;;;19.40;99.90;;;;;;10539606;28;20231;-83
2021/06/25 00:50:54;;;;;;;2.40;2.30;;;19.40;99.90;;;;;;10540486;28;20687;-84
2021/06/25 00:55:56;;;;;;;2.53;2.33;;;19.40;99.90;;;;;;10537582;28;20617;-83
2021/06/25 01:00:58;;;;;;;2.03;1.93;;;19.40;99.90;;;;;;10525240;28;20227;-83
2021/06/25 01:06:02;;;;;;;1.83;1.73;;;19.40;99.90;;;;;;10523939;28;20230;-83
2021/06/25 01:11:05;;;;;;;2.00;1.90;;;19.40;99.90;;;;;;10553271;28;20220;-83
2021/06/25 01:16:07;;;;;;;2.47;2.37;;;19.40;99.90;;;;;;10523636;28;20196;-83
2021/06/25 01:21:11;;;;;;;2.13;2.03;;;19.20;99.90;;;;;;10519524;28;20277;-83
2021/06/25 01:26:14;;;;;;;2.00;1.80;;;19.00;99.90;;;;;;10544033;28;20315;-84
2021/06/25 01:31:16;;;;;;;1.80;1.70;;;18.90;99.90;;;;;;10527805;28;20226;-83
2021/06/25 01:36:20;;;;;;;1.73;1.63;;;18.80;99.90;;;;;;10535480;28;20204;-83
2021/06/25 01:41:22;;;;;;;1.60;1.50;;;18.80;99.90;;;;;;10486793;28;20225;-83
2021/06/25 01:46:24;;;;;;;1.80;1.70;;;18.70;99.90;;;;;;10502805;28;20299;-84
2021/06/25 01:51:28;;;;;;;1.67;1.57;;;18.80;99.90;;;;;;10541632;28;20224;-83
2021/06/25 01:56:30;;;;;;;1.57;1.47;;;18.80;99.90;;;;;;10537123;28;20614;-83
2021/06/25 02:01:32;;;;;;;1.60;1.50;;;18.80;99.90;;;;;;10499097;28;20231;-83
2021/06/25 02:06:35;;;;;;;2.17;2.07;;;18.80;99.90;;;;;;10527866;28;20258;-83
2021/06/25 02:11:38;;;;;;;1.90;1.80;;;18.90;99.90;;;;;;10501079;28;20303;-83
2021/06/25 02:16:40;;;;;;;1.80;1.70;;;19.00;99.90;;;;;;10502887;28;20205;-83
2021/06/25 02:21:43;;;;;;;2.00;1.90;;;19.00;99.90;;;;;;10506062;28;20348;-84
2021/06/25 02:26:45;;;;;;;1.90;1.77;;;19.00;99.90;;;;;;10513084;28;20211;-84
2021/06/25 02:31:47;;;;;;;1.80;1.70;;;19.00;99.90;;;;;;10523743;28;20242;-83
2021/06/25 02:36:51;;;;;;;2.47;2.33;;;18.70;99.90;;;;;;10521310;28;20196;-83
2021/06/25 02:41:53;;;;;;;2.80;2.60;;;18.60;99.90;;;;;;10504651;28;20741;-83
2021/06/25 02:46:55;;;;;;;2.50;2.40;;;18.50;99.90;;;;;;10506692;28;20676;-83
2021/06/25 02:51:59;;;;;;;2.93;2.83;;;18.40;99.90;;;;;;10509044;28;20236;-83
2021/06/25 02:57:01;;;;;;;2.73;2.63;;;18.40;99.90;;;;;;10498783;28;20305;-83
2021/06/25 03:02:03;;;;;;;3.53;3.07;;;18.30;99.90;;;;;;10507550;28;20223;-83
2021/06/25 03:07:07;;;;;;;3.77;3.47;;;18.30;99.90;;;;;;10539507;28;20212;-83
2021/06/25 03:12:10;;;;;;;2.87;2.73;;;18.30;99.90;;;;;;10516987;28;20296;-83
2021/06/25 03:17:12;;;;;;;3.13;3.03;;;18.40;99.90;;;;;;10519687;28;20272;-83
2021/06/25 03:22:16;;;;;;;3.60;3.40;;;18.40;99.90;;;;;;10508060;28;20223;-83
2021/06/25 03:27:18;;;;;;;2.93;2.83;;;18.40;99.90;;;;;;10506105;28;20266;-83
2021/06/25 03:32:20;;;;;;;2.87;2.77;;;18.30;99.90;;;;;;10483789;28;20227;-83
2021/06/25 03:37:23;;;;;;;2.10;2.00;;;18.30;99.90;;;;;;10535386;28;20207;-83
2021/06/25 03:42:26;;;;;;;4.13;3.87;;;18.20;99.90;;;;;;10509343;28;20248;-83
2021/06/25 03:47:28;;;;;;;2.13;2.03;;;18.20;99.90;;;;;;10540389;28;20251;-84
2021/06/25 03:52:31;;;;;;;2.40;2.30;;;18.20;99.90;;;;;;10509001;28;20227;-84
2021/06/25 03:57:34;;;;;;;2.73;2.63;;;18.20;99.90;;;;;;10530109;28;20218;-83
2021/06/25 04:02:37;;;;;;;2.60;2.50;;;18.20;99.90;;;;;;10506281;28;20227;-83
2021/06/25 04:07:42;;;;;;;2.47;2.37;;;18.30;99.90;;;;;;10506131;28;20254;-83
2021/06/25 04:12:44;;;;;;;3.33;1.70;;;18.40;99.90;;;;;;10536540;28;20236;-83
2021/06/25 04:17:46;;;;;;;2.23;2.13;;;18.40;99.90;;;;;;10496297;28;20291;-83
2021/06/25 04:22:50;;;;;;;2.27;2.07;;;18.50;99.90;;;;;;10502960;28;20254;-83
2021/06/25 04:27:53;;;;;;;2.10;2.00;;;18.60;99.90;;;;;;10534346;28;20212;-83
2021/06/25 04:32:57;;;;;;;1.80;1.70;;;18.60;99.90;;;;;;10496928;28;20216;-83
2021/06/25 04:38:01;;;;;;;2.17;2.07;;;18.70;99.90;;;;;;10495117;28;20193;-83
2021/06/25 04:43:03;;;;;;;1.83;1.60;;;18.60;99.90;;;;;;10516058;28;20224;-83
2021/06/25 04:48:10;;;;;;;2.20;2.10;;;18.70;99.90;;;;;;10534676;28;20657;-84
2021/06/25 04:53:13;;;;;;;2.00;1.90;;;18.80;99.90;;;;;;10481674;28;20228;-84
2021/06/25 04:58:17;;;;;;;2.60;2.50;;;18.80;99.90;;;;;;10517055;28;20231;-84
2021/06/25 05:03:19;;;;;;;2.60;2.50;;;18.90;99.90;;;;;;10537186;28;20234;-84
2021/06/25 05:08:23;;;;;;;2.30;2.10;;;19.00;99.90;;;;;;10503408;28;20212;-85
2021/06/25 05:13:25;;;;;;;6.03;2.60;;;19.00;99.90;;;;;;10545498;22;20262;-80
2021/06/25 05:18:27;;;;;;;2.30;2.20;;;19.00;99.90;;;;;;10527126;28;20222;-80
2021/06/25 05:23:31;;;;;;;2.00;1.90;;;19.00;99.90;;;;;;10546695;28;20259;-80
2021/06/25 05:28:33;;;;;;;5.63;2.10;;;19.00;99.90;;;;;;10546901;28;20235;-80
2021/06/25 05:33:35;;;;;;;2.27;2.17;;;19.10;99.90;;;;;;10547100;28;20220;-80
2021/06/25 05:38:39;;;;;;;4.60;2.27;;;19.20;99.90;;;;;;10548127;28;20272;-80
2021/06/25 05:43:42;;;;;;;2.17;2.07;;;19.30;99.90;;;;;;10548610;28;20695;-81
2021/06/25 05:48:44;;;;;;;2.10;2.00;;;19.30;99.90;;;;;;10547399;28;20238;-82
2021/06/25 05:53:47;;;;;;;2.20;2.10;;;19.20;99.90;;;;;;10547125;28;20223;-81
2021/06/25 05:58:50;;;;;;;3.10;2.90;;;19.10;99.90;;;;;;10548203;28;20219;-83
2021/06/25 06:03:52;;;;;;;2.80;2.70;;;19.00;99.90;;;;;;10549035;28;20239;-83
2021/06/25 06:08:56;;;;;;;2.83;2.63;;;19.00;99.90;;;;;;10550144;28;20227;-82
2021/06/25 06:13:58;;;;;;;2.40;2.30;;;18.90;99.90;;;;;;10549278;28;20243;-83
2021/06/25 06:19:02;;;;;;;2.40;2.20;;;18.80;99.90;;;;;;10547552;28;20208;-83
2021/06/25 06:34:47;;;;;;;2.83;2.63;;;18.70;99.90;;;;;;10546690;28;20203;-82
2021/06/25 06:39:50;;;;;;;2.93;2.80;;;18.80;99.90;;;;;;10547994;28;20211;-83
2021/06/25 06:44:52;;;;;;;2.80;2.63;;;18.90;99.90;;;;;;10527810;28;20215;-83
2021/06/25 06:49:54;;;;;;;3.53;2.40;;;19.00;99.90;;;;;;10549107;28;20579;-81
2021/06/25 06:54:58;;;;;;;2.90;2.80;;;19.00;99.90;;;;;;10541513;28;20683;-82
2021/06/25 07:00:00;;;;;;;3.40;3.20;;;18.90;99.90;;;;;;10551549;28;20667;-82
2021/06/25 07:05:02;;;;;;;3.60;3.40;;;18.80;99.90;;;;;;10530628;28;20223;-83
2021/06/25 07:10:08;;;;;;;3.73;3.53;;;18.70;99.90;;;;;;10547504;28;20227;-81
2021/06/25 07:15:11;;;;;;;3.77;3.57;;;18.70;99.90;;;;;;10540515;28;20632;-81
2021/06/25 07:20:13;;;;;;;3.43;3.23;;;18.70;99.90;;;;;;10547435;28;20191;-82
2021/06/25 07:25:17;;;;;;;4.50;3.30;;;18.70;99.90;;;;;;10550144;28;20245;-82
2021/06/25 07:30:19;;;;;;;4.30;4.00;;;18.70;99.90;;;;;;10550140;28;20206;-83
2021/06/25 07:35:21;;;;;;;4.83;4.53;;;18.70;99.90;;;;;;10542734;28;20713;-82
2021/06/25 07:40:25;;;;;;;4.97;4.67;;;18.70;99.90;;;;;;10532973;28;20203;-82
2021/06/25 07:45:27;;;;;;;5.50;5.00;;;18.70;99.90;;;;;;10542928;28;20692;-82
2021/06/25 07:50:29;;;;;;;5.33;4.83;;;18.70;99.90;;;;;;10538666;28;20199;-82
2021/06/25 07:55:33;;;;;;;6.07;5.57;;;18.80;99.90;;;;;;10545174;28;20622;-82
2021/06/25 08:00:35;;;;;;;5.03;4.63;;;18.80;99.90;;;;;;10545400;28;20257;-80
2021/06/25 08:05:38;;;;;;;5.50;5.10;;;19.00;99.90;;;;;;10527551;28;20658;-81
2021/06/25 08:10:41;;;;;;;4.70;4.30;;;19.30;99.90;;;;;;10523839;28;20203;-82
2021/06/25 08:15:49;;;;;;;4.63;4.23;;;19.40;99.90;;;;;;10538437;28;20288;-83
2021/06/25 08:20:51;;;;;;;4.53;4.23;;;19.70;99.90;;;;;;10541688;28;20214;-82
2021/06/25 08:25:54;;;;;;;7.23;4.57;;;20.10;99.90;;;;;;10543539;28;20660;-83
2021/06/25 08:30:56;;;;;;;4.50;4.23;;;20.50;99.90;;;;;;10522932;28;20192;-83
2021/06/25 08:35:59;;;;;;;3.70;3.50;;;20.60;99.90;;;;;;10544389;28;20206;-83
2021/06/25 08:41:03;;;;;;;3.70;3.50;;;20.60;99.90;;;;;;10544820;28;20649;-83
2021/06/25 08:46:05;;;;;;;6.60;4.33;;;20.60;99.90;;;;;;10543303;28;20219;-82
2021/06/25 08:51:09;;;;;;;4.17;3.80;;;20.40;99.90;;;;;;10541708;28;20210;-81
2021/06/25 08:56:13;;;;;;;4.50;4.10;;;19.90;99.90;;;;;;10550018;28;20227;-82
2021/06/25 09:01:16;;;;;;;4.10;3.80;;;19.60;99.90;;;;;;10536968;28;20250;-83
2021/06/25 09:06:18;;;;;;;4.90;4.60;;;19.30;99.90;;;;;;10530410;28;20227;-82
2021/06/25 09:11:24;;;;;;;4.30;4.00;;;19.20;99.90;;;;;;10545998;28;20259;-82
2021/06/25 09:16:28;;;;;;;6.00;5.60;;;19.20;99.90;;;;;;10521680;28;20659;-82
2021/06/25 09:21:32;;;;;;;5.60;5.20;;;19.10;99.90;;;;;;10541872;28;20698;-82
2021/06/25 09:26:36;;;;;;;5.77;5.37;;;19.00;99.90;;;;;;10544490;28;20215;-83
2021/06/25 09:31:38;;;;;;;5.70;5.30;;;19.10;99.90;;;;;;10530424;28;20345;-83
2021/06/25 09:36:40;;;;;;;4.67;4.37;;;19.10;99.90;;;;;;10550266;28;20200;-82
2021/06/25 09:47:01;;;;;;;5.77;5.27;;;19.00;99.90;;;;;;10856814;22;20275;-80
2021/06/25 09:52:05;;;;;;;6.30;5.90;;;19.10;99.90;;;;;;10575832;28;20227;-82
2021/06/25 09:57:09;;;;;;;5.70;5.20;;;19.20;99.90;;;;;;10603268;27;20199;-81
2021/06/25 10:02:26;;;;;;;5.93;5.53;;;19.20;99.90;;;;;;10608851;27;20246;-81
2021/06/25 10:07:30;;;;;;;9.17;6.13;;;19.30;99.90;;;;;;10611626;27;20297;-80
2021/06/25 10:12:32;;;;;;;7.63;6.77;;;19.30;99.90;;;;;;10554324;27;20243;-82
2021/06/25 10:17:37;;;;;;;7.30;6.70;;;19.40;99.90;;;;;;10567458;28;20270;-83
2021/06/25 10:22:43;;;;;;;8.40;7.77;;;19.50;99.90;;;;;;10586425;28;20636;-81
2021/06/25 10:27:48;;;;;;;8.90;8.20;;;19.50;99.90;;;;;;10554756;28;20246;-83
2021/06/25 10:32:52;;;;;;;8.70;8.00;;;19.50;99.90;;;;;;10553405;28;20227;-80
2021/06/25 10:37:55;;;;;;;8.80;8.00;;;19.40;99.90;;;;;;10606747;27;20314;-79
2021/06/25 10:43:00;;;;;;;10.00;9.20;;;19.50;99.90;;;;;;10580651;27;20236;-79
2021/06/25 10:48:06;;;;;;;10.00;9.10;;;19.60;99.90;;;;;;10571354;27;20250;-80
2021/06/25 10:53:23;;;;;;;11.53;10.50;;;19.70;99.90;;;;;;10601636;27;20690;-79
2021/06/25 10:58:27;;;;;;;11.53;10.50;;;19.80;99.90;;;;;;10595307;27;20208;-80
2021/06/25 11:04:10;;;;;;;11.13;10.20;;;19.90;99.90;;;;;;10591189;27;20219;-79
2021/06/25 11:10:03;;;;;;;10.37;9.53;;;19.90;99.90;;;;;;10587915;27;20313;-80
2021/06/25 11:15:32;;;;;;;9.90;8.93;;;19.90;99.90;;;;;;10592394;27;20761;-78
2021/06/25 11:20:38;;;;;;;11.83;10.63;;;20.10;99.90;;;;;;10632584;27;20198;-80
2021/06/25 11:25:46;;;;;;;9.50;8.70;;;20.30;99.90;;;;;;10599116;27;20214;-80
2021/06/25 11:31:04;;;;;;;9.80;8.80;;;20.40;99.90;;;;;;10601937;27;20617;-80
2021/06/25 11:36:27;;;;;;;13.10;9.47;;;20.60;99.90;;;;;;10586276;28;20194;-79
2021/06/25 11:41:32;;;;;;;11.60;10.57;;;20.70;99.90;;;;;;10607612;27;20283;-79
2021/06/25 11:46:34;;;;;;;15.17;12.93;;;20.70;99.90;;;;;;10608568;27;20252;-79
2021/06/25 11:51:40;;;;;;;15.10;12.77;;;21.00;99.90;;;;;;10592278;27;20222;-80
2021/06/25 11:56:46;;;;;;;12.80;11.70;;;21.10;99.90;;;;;;10603309;27;20198;-80
2021/06/25 12:01:57;;;;;;;12.83;11.67;;;21.20;99.90;;;;;;10610248;27;20218;-78
2021/06/25 12:07:01;;;;;;;12.23;11.03;;;21.30;99.90;;;;;;10608241;27;20267;-79
2021/06/25 12:12:03;;;;;;;9.17;8.37;;;21.50;99.90;;;;;;10616626;27;20237;-79
2021/06/25 12:17:06;;;;;;;8.67;7.97;;;21.70;99.90;;;;;;10606650;27;20202;-81
2021/06/25 12:22:10;;;;;;;7.37;6.67;;;21.60;99.90;;;;;;10610756;27;20230;-79
2021/06/25 12:27:12;;;;;;;7.77;7.17;;;21.50;99.90;;;;;;10586077;28;20227;-78
2021/06/25 12:32:18;;;;;;;7.00;6.50;;;21.40;99.90;;;;;;10580477;28;20239;-80
2021/06/25 12:37:22;;;;;;;6.50;6.03;;;21.60;99.90;;;;;;10591929;28;20200;-79
2021/06/25 12:42:24;;;;;;;5.80;5.40;;;21.90;99.90;;;;;;10553666;28;20223;-81
2021/06/25 12:47:30;;;;;;;5.60;5.10;;;21.90;99.90;;;;;;10581258;28;20694;-82
2021/06/25 12:52:34;;;;;;;5.90;5.50;;;21.90;99.90;;;;;;10546046;28;20254;-82
2021/06/25 12:57:36;;;;;;;6.30;5.80;;;21.80;99.90;;;;;;10581911;28;20662;-83
2021/06/25 13:02:39;;;;;;;5.30;5.00;;;22.00;99.90;;;;;;10565348;28;20227;-83
2021/06/25 13:07:42;;;;;;;5.83;5.43;;;22.20;99.90;;;;;;10548701;28;20255;-83
2021/06/25 13:12:44;;;;;;;5.50;5.10;;;22.30;99.90;;;;;;10569593;28;20299;-80
2021/06/25 13:17:49;;;;;;;7.40;6.73;;;22.40;99.90;;;;;;10593477;28;20222;-82
2021/06/25 13:22:58;;;;;;;6.50;6.00;;;22.50;99.90;;;;;;10628951;28;20301;-78
2021/06/25 13:28:00;;;;;;;7.13;6.53;;;22.60;99.90;;;;;;10605303;28;20238;-82
2021/06/25 13:33:08;;;;;;;7.63;7.03;;;22.60;99.90;;;;;;10605529;28;20215;-83
2021/06/25 13:38:21;;;;;;;6.90;6.40;;;22.50;99.90;;;;;;10611344;27;20628;-82
2021/06/25 13:43:31;;;;;;;7.43;6.00;;;22.60;99.90;;;;;;10622137;27;20574;-79
2021/06/25 13:48:34;;;;;;;6.13;5.67;;;22.50;99.90;;;;;;10588889;27;20311;-79
2021/06/25 13:53:39;;;;;;;7.10;6.60;;;22.30;99.90;;;;;;10591036;27;20222;-78
2021/06/25 13:58:52;;;;;;;7.00;6.50;;;22.20;99.90;;;;;;10592591;27;20740;-81
2021/06/25 14:03:56;;;;;;;6.60;6.17;;;22.20;99.90;;;;;;10601643;27;20226;-80
2021/06/25 14:08:59;;;;;;;7.07;6.57;;;22.10;99.90;;;;;;10596752;27;20275;-80
2021/06/25 14:14:08;;;;;;;7.63;6.97;;;22.10;99.90;;;;;;10611145;27;20603;-79
2021/06/25 14:19:12;;;;;;;6.30;5.90;;;22.10;99.90;;;;;;10620133;27;20194;-82
2021/06/25 14:24:21;;;;;;;8.13;7.33;;;22.20;99.90;;;;;;10616643;27;20252;-80
2021/06/25 14:29:24;;;;;;;7.90;7.30;;;22.20;99.90;;;;;;10626355;27;20229;-82
2021/06/25 14:34:26;;;;;;;7.50;6.90;;;22.30;99.90;;;;;;10624220;27;20214;-81
2021/06/25 14:39:29;;;;;;;5.87;5.43;;;22.50;99.90;;;;;;10606172;27;20301;-82
2021/06/25 14:44:31;;;;;;;6.30;5.80;;;22.60;99.90;;;;;;10611179;27;20234;-83
2021/06/25 14:49:34;;;;;;;6.37;5.97;;;22.70;99.90;;;;;;10610685;27;20218;-82
2021/06/25 14:54:37;;;;;;;6.83;6.33;;;22.70;99.90;;;;;;10596448;27;20230;-82
2021/06/25 14:59:39;;;;;;;6.97;6.37;;;22.70;99.90;;;;;;10613332;27;20222;-82
2021/06/25 15:04:41;;;;;;;7.77;6.73;;;22.70;99.90;;;;;;10614611;27;20321;-80
2021/06/25 15:09:45;;;;;;;7.20;6.70;;;22.60;99.90;;;;;;10637788;27;20314;-81
2021/06/25 15:14:47;;;;;;;6.90;6.40;;;22.50;99.90;;;;;;10628825;27;20218;-80
2021/06/25 15:19:49;;;;;;;5.63;5.23;;;22.50;99.90;;;;;;10593533;27;20202;-81
2021/06/25 15:24:53;;;;;;;6.10;5.53;;;22.40;99.90;;;;;;10629582;27;20273;-81
2021/06/25 15:29:55;;;;;;;8.77;6.03;;;22.40;99.90;;;;;;10594161;27;20634;-83
2021/06/25 15:34:57;;;;;;;5.80;5.30;;;22.40;99.90;;;;;;10610316;27;20226;-81
2021/06/25 15:40:01;;;;;;;5.43;5.00;;;22.30;99.90;;;;;;10600186;27;20225;-81
2021/06/25 15:45:05;;;;;;;5.93;5.43;;;22.40;99.90;;;;;;10590687;27;20235;-80
2021/06/25 15:50:09;;;;;;;5.60;5.20;;;22.50;99.90;;;;;;10623234;27;20210;-79
2021/06/25 15:55:13;;;;;;;5.27;4.90;;;22.60;99.90;;;;;;10625018;27;20218;-78
2021/06/25 16:00:16;;;;;;;5.50;5.10;;;22.60;99.90;;;;;;10603546;27;20270;-78
2021/06/25 16:05:18;;;;;;;6.90;6.40;;;22.60;99.90;;;;;;10622568;27;20218;-80
2021/06/25 16:10:24;;;;;;;5.67;5.27;;;22.50;99.90;;;;;;10619383;27;20313;-79
2021/06/25 16:15:26;;;;;;;5.83;5.33;;;22.60;99.90;;;;;;10586641;27;20215;-78
2021/06/25 16:20:28;;;;;;;5.80;5.40;;;22.60;99.90;;;;;;10620499;27;20255;-77
2021/06/25 16:25:32;;;;;;;5.50;5.03;;;22.60;99.90;;;;;;10615128;27;20302;-78
2021/06/25 16:30:34;;;;;;;5.73;5.23;;;22.50;99.90;;;;;;10593760;28;20252;-79
2021/06/25 16:35:36;;;;;;;5.97;5.47;;;22.40;99.90;;;;;;10602714;28;20279;-79
2021/06/25 16:40:39;;;;;;;6.30;5.80;;;22.40;99.90;;;;;;10610121;28;20232;-78
2021/06/25 16:45:42;;;;;;;8.13;7.37;;;22.30;99.90;;;;;;10577167;28;20234;-77
2021/06/25 16:50:45;;;;;;;6.23;5.70;;;22.30;99.90;;;;;;10564050;28;20600;-77
2021/06/25 16:55:48;;;;;;;6.40;5.90;;;22.30;99.90;;;;;;10566788;28;20219;-77
2021/06/25 17:00:50;;;;;;;6.97;6.40;;;22.30;99.90;;;;;;10596798;28;20198;-78
2021/06/25 17:05:53;;;;;;;7.43;6.80;;;22.30;99.90;;;;;;10578486;28;20190;-78
2021/06/25 17:10:56;;;;;;;7.07;6.47;;;22.20;99.90;;;;;;10569405;27;20219;-78
2021/06/25 17:15:59;;;;;;;8.13;7.53;;;22.20;99.90;;;;;;10583975;22;20261;-79
2021/06/25 17:21:05;;;;;;;7.90;7.20;;;22.10;99.90;;;;;;10522065;28;20200;-78
2021/06/25 17:26:09;;;;;;;8.80;8.10;;;22.00;99.90;;;;;;10520229;28;20715;-79
2021/06/25 17:31:11;;;;;;;8.60;7.90;;;21.90;99.90;;;;;;10570341;28;20578;-78
2021/06/25 17:36:13;;;;;;;8.33;7.63;;;21.70;99.90;;;;;;10557072;28;20227;-79
2021/06/25 17:41:17;;;;;;;8.40;7.60;;;21.70;99.90;;;;;;10580902;28;20205;-79
2021/06/25 17:46:19;;;;;;;8.47;7.77;;;21.60;99.90;;;;;;10556073;28;20203;-79
2021/06/25 17:51:24;;;;;;;9.20;8.40;;;21.60;99.90;;;;;;10569460;28;20191;-79
2021/06/25 17:56:28;;;;;;;7.50;6.90;;;21.60;99.90;;;;;;10569357;28;20199;-79
2021/06/25 18:01:30;;;;;;;12.03;8.37;;;21.50;99.90;;;;;;10541395;28;20267;-79
2021/06/25 18:06:32;;;;;;;10.03;8.80;;;21.50;99.90;;;;;;10580336;28;20227;-79
2021/06/25 18:11:37;;;;;;;8.50;7.80;;;21.50;99.90;;;;;;10552097;28;20226;-79
2021/06/25 18:16:40;;;;;;;9.30;8.50;;;21.40;99.90;;;;;;10584791;28;20685;-79
2021/06/25 18:21:43;;;;;;;10.60;9.60;;;21.30;99.90;;;;;;10542248;28;20255;-79
2021/06/25 18:26:48;;;;;;;13.30;10.93;;;21.30;99.90;;;;;;10550927;28;20198;-80
2021/06/25 18:31:51;;;;;;;10.00;9.23;;;21.20;99.90;;;;;;10529150;28;20226;-80
2021/06/25 18:36:53;;;;;;;11.50;10.60;;;21.20;99.90;;;;;;10563249;28;20196;-80
2021/06/25 18:41:57;;;;;;;12.60;11.40;;;21.20;99.90;;;;;;10571148;28;20332;-79
2021/06/25 18:46:59;;;;;;;19.00;17.13;;;21.20;99.90;;;;;;10566789;28;20239;-81
2021/06/25 18:52:02;;;;;;;13.00;11.90;;;21.10;99.90;;;;;;10535562;28;20293;-80
2021/06/25 18:57:06;;;;;;;16.53;15.13;;;21.10;99.90;;;;;;10524989;28;20203;-79
2021/06/25 19:02:09;;;;;;;14.70;12.93;;;21.00;99.90;;;;;;10554660;28;20227;-79
2021/06/25 19:07:11;;;;;;;12.07;11.10;;;20.90;99.90;;;;;;10563828;28;20231;-79
2021/06/25 19:12:14;;;;;;;12.07;11.13;;;20.80;99.90;;;;;;10559807;28;20254;-79
2021/06/25 19:17:16;;;;;;;11.37;10.17;;;20.80;99.90;;;;;;10540259;28;20219;-80
2021/06/25 19:22:19;;;;;;;11.67;10.77;;;20.70;99.90;;;;;;10545931;28;20256;-79
2021/06/25 19:27:22;;;;;;;11.27;10.27;;;20.60;99.90;;;;;;10559994;28;20209;-79
2021/06/25 19:32:25;;;;;;;12.10;11.10;;;20.60;99.90;;;;;;10526428;28;20246;-79
2021/06/25 19:37:27;;;;;;;10.80;10.00;;;20.50;99.90;;;;;;10544109;28;20206;-80
2021/06/25 19:42:30;;;;;;;11.20;10.30;;;20.40;99.90;;;;;;10550121;28;20225;-80
2021/06/25 19:47:33;;;;;;;12.37;11.17;;;20.30;99.90;;;;;;10548231;27;20220;-80
2021/06/25 19:52:35;;;;;;;14.70;10.53;;;20.10;99.90;;;;;;10558327;28;20298;-80
2021/06/25 19:57:39;;;;;;;11.40;10.40;;;20.00;99.90;;;;;;10505227;28;20203;-80
2021/06/25 20:02:42;;;;;;;11.20;10.23;;;19.90;99.90;;;;;;10560113;28;20309;-81
2021/06/25 20:07:44;;;;;;;11.80;10.83;;;19.70;99.90;;;;;;10571800;28;20297;-80
2021/06/25 20:12:48;;;;;;;11.57;10.40;;;19.60;99.90;;;;;;10568163;28;20232;-79
2021/06/25 20:17:51;;;;;;;11.07;10.27;;;19.50;99.90;;;;;;10572560;28;20195;-79
2021/06/25 20:22:53;;;;;;;12.17;10.90;;;19.40;99.90;;;;;;10548757;28;20251;-79
2021/06/25 20:27:57;;;;;;;12.87;11.77;;;19.30;99.90;;;;;;10546551;28;20757;-80
2021/06/25 20:33:01;;;;;;;12.50;11.30;;;19.30;99.90;;;;;;10564242;28;20214;-79
2021/06/25 20:38:04;;;;;;;12.80;11.70;;;19.20;99.90;;;;;;10545061;28;20191;-79
2021/06/25 20:43:07;;;;;;;13.37;12.27;;;19.20;99.90;;;;;;10548277;28;20572;-79
2021/06/25 20:48:10;;;;;;;12.73;11.53;;;19.20;99.90;;;;;;10567472;28;20274;-80
2021/06/25 20:53:12;;;;;;;12.30;11.40;;;19.20;99.90;;;;;;10560174;28;20235;-79
2021/06/25 20:58:15;;;;;;;11.57;10.60;;;19.20;99.90;;;;;;10537527;28;20198;-79
2021/06/25 21:03:17;;;;;;;12.57;11.43;;;19.20;99.90;;;;;;10555549;28;20221;-80
2021/06/25 21:08:20;;;;;;;12.63;11.53;;;19.10;99.90;;;;;;10572622;28;20211;-79
2021/06/25 21:13:24;;;;;;;12.50;11.40;;;19.10;99.90;;;;;;10554474;28;20682;-79
2021/06/25 21:18:26;;;;;;;12.47;11.47;;;19.10;99.90;;;;;;10545943;28;20588;-79
2021/06/25 21:23:28;;;;;;;12.50;11.33;;;19.00;99.90;;;;;;10567048;28;20219;-79
2021/06/25 21:28:31;;;;;;;11.70;10.80;;;19.10;99.90;;;;;;10544462;28;20219;-80
2021/06/25 21:33:34;;;;;;;11.77;10.90;;;19.10;99.90;;;;;;10566131;28;20234;-79
2021/06/25 21:38:36;;;;;;;12.50;11.40;;;19.10;99.90;;;;;;10552545;28;20269;-79
2021/06/25 21:43:39;;;;;;;11.20;10.10;;;19.10;99.90;;;;;;10539771;28;20281;-79
2021/06/25 21:48:41;;;;;;;11.57;10.67;;;19.00;99.90;;;;;;10565847;28;20732;-80
2021/06/25 21:53:45;;;;;;;11.10;10.20;;;19.00;99.90;;;;;;10564716;28;20230;-80
2021/06/25 21:58:48;;;;;;;11.73;10.53;;;19.00;99.90;;;;;;10564573;28;20188;-79
2021/06/25 22:03:50;;;;;;;9.83;9.13;;;19.00;99.90;;;;;;10534211;28;20272;-79
2021/06/25 22:08:52;;;;;;;10.60;9.80;;;19.00;99.90;;;;;;10540627;28;20260;-79
2021/06/25 22:13:56;;;;;;;9.70;8.73;;;18.90;99.90;;;;;;10547708;28;20739;-79
2021/06/25 22:18:58;;;;;;;9.80;9.10;;;18.80;99.90;;;;;;10565254;28;20282;-79
2021/06/25 22:24:01;;;;;;;9.97;9.17;;;18.80;99.90;;;;;;10561467;28;20800;-78
2021/06/25 22:29:05;;;;;;;9.83;9.10;;;18.70;99.90;;;;;;10548714;28;20250;-80
2021/06/25 22:34:07;;;;;;;9.80;8.97;;;18.70;99.90;;;;;;10578781;28;20223;-80
2021/06/25 22:39:09;;;;;;;9.90;9.00;;;18.60;99.90;;;;;;10557043;28;20282;-80
2021/06/25 22:44:12;;;;;;;10.50;9.70;;;18.60;99.90;;;;;;10585135;28;20223;-81
2021/06/25 22:49:15;;;;;;;9.00;8.40;;;18.60;99.90;;;;;;10574010;28;20215;-79
2021/06/25 22:54:17;;;;;;;8.93;7.90;;;18.60;99.90;;;;;;10565605;28;20221;-78
2021/06/25 22:59:21;;;;;;;9.00;8.20;;;18.70;99.90;;;;;;10530942;28;20249;-80
2021/06/25 23:04:23;;;;;;;9.67;8.97;;;18.80;99.90;;;;;;10514487;28;20224;-79
2021/06/25 23:09:26;;;;;;;8.33;7.63;;;18.80;99.90;;;;;;10548589;28;20290;-80
2021/06/25 23:14:29;;;;;;;8.43;7.60;;;18.90;99.90;;;;;;10606822;22;20235;-79
2021/06/25 23:19:32;;;;;;;8.30;7.70;;;18.90;99.90;;;;;;10586330;28;20199;-77
2021/06/25 23:24:34;;;;;;;7.60;7.00;;;18.90;99.90;;;;;;10588509;28;20682;-77
2021/06/25 23:29:37;;;;;;;8.63;7.83;;;18.90;99.90;;;;;;10578016;28;20624;-79
2021/06/25 23:34:39;;;;;;;8.60;7.57;;;18.90;99.90;;;;;;10544127;28;20226;-79
2021/06/25 23:39:42;;;;;;;12.07;7.43;;;18.90;99.90;;;;;;10584387;28;20206;-77
2021/06/25 23:44:45;;;;;;;8.57;7.80;;;18.90;99.90;;;;;;10570510;28;20215;-77
2021/06/25 23:49:47;;;;;;;8.63;7.83;;;18.90;99.90;;;;;;10564588;28;20251;-79
2021/06/25 23:54:49;;;;;;;8.73;7.93;;;18.90;99.90;;;;;;10546154;28;20747;-80
2021/06/25 23:59:53;;;;;;;9.47;7.67;;;18.90;99.90;;;;;;10546037;28;20187;-79
